Time;durP1;ratioP1;P1;durP2;ratioP2;P2;SDS_P1;SDS_P2;PMS_P1;PMS_P2;Temp;Humidity;BMP_temperature;BMP_pressure;BME280_temperature;BME280_humidity;BME280_pressure;Samples;Min_cycle;Max_cycle;Signal;HPM_P1;HPM_P2
2022/07/03 00:02:29;;;;;;;2.58;1.58;;;19.60;99.90;;;;;;5006656;28;20707;-77
2022/07/03 00:05:19;;;;;;;3.05;1.67;;;19.60;99.90;;;;;;5020704;28;20226;-77
2022/07/03 00:08:07;;;;;;;6.30;1.90;;;19.60;99.90;;;;;;5013481;28;20221;-76
2022/07/03 00:10:56;;;;;;;2.38;1.50;;;19.60;99.90;;;;;;5014378;28;20230;-77
2022/07/03 00:13:45;;;;;;;7.72;1.95;;;19.60;99.90;;;;;;5011637;28;20228;-78
2022/07/03 00:16:33;;;;;;;3.25;1.88;;;19.60;99.90;;;;;;5012054;28;20759;-73
2022/07/03 00:19:23;;;;;;;2.70;1.50;;;19.50;99.90;;;;;;4997321;28;20217;-75
2022/07/03 00:22:17;;;;;;;2.25;1.70;;;19.40;99.90;;;;;;5009389;28;20356;-74
2022/07/03 00:25:07;;;;;;;3.70;1.52;;;19.50;99.90;;;;;;5000173;28;20232;-74
2022/07/03 00:27:56;;;;;;;4.13;1.60;;;19.40;99.90;;;;;;5022321;28;20220;-73
2022/07/03 00:30:48;;;;;;;3.80;2.22;;;19.50;99.90;;;;;;5013047;28;20222;-74
2022/07/03 00:33:37;;;;;;;3.63;1.90;;;19.40;99.90;;;;;;4998590;28;20727;-74
2022/07/03 00:36:30;;;;;;;6.05;1.95;;;19.40;99.90;;;;;;5016048;28;20231;-75
2022/07/03 00:39:19;;;;;;;4.35;2.03;;;19.50;99.90;;;;;;5012578;28;20225;-74
2022/07/03 00:42:08;;;;;;;3.45;1.83;;;19.60;99.90;;;;;;5017507;28;20223;-74
2022/07/03 00:44:58;;;;;;;3.38;1.67;;;19.50;99.90;;;;;;5013408;28;20234;-73
2022/07/03 00:47:47;;;;;;;2.88;1.67;;;19.50;99.90;;;;;;5002465;28;21409;-75
2022/07/03 00:50:37;;;;;;;2.15;1.95;;;19.40;99.90;;;;;;5016467;28;20218;-73
2022/07/03 00:53:29;;;;;;;5.55;2.58;;;19.50;99.90;;;;;;5015346;28;20226;-73
2022/07/03 00:56:23;;;;;;;5.22;2.40;;;19.50;99.90;;;;;;5013374;28;20218;-74
2022/07/03 00:59:11;;;;;;;3.75;1.77;;;19.60;99.90;;;;;;5013469;28;20665;-75
2022/07/03 01:02:05;;;;;;;3.88;1.88;;;19.70;99.90;;;;;;5004026;28;20233;-76
2022/07/03 01:05:06;;;;;;;4.97;2.05;;;19.50;99.90;;;;;;5000955;28;20305;-75
2022/07/03 01:08:08;;;;;;;2.83;1.58;;;19.50;99.90;;;;;;5010092;28;20275;-74
2022/07/03 01:11:08;;;;;;;3.17;2.05;;;19.50;99.90;;;;;;5005100;28;20308;-76
2022/07/03 01:14:18;;;;;;;6.15;1.83;;;19.50;99.90;;;;;;5018790;28;20221;-73
2022/07/03 01:17:20;;;;;;;3.20;1.65;;;19.50;99.90;;;;;;5013367;28;20223;-74
2022/07/03 01:20:09;;;;;;;5.43;2.17;;;19.50;99.90;;;;;;5019642;28;20217;-75
2022/07/03 01:23:01;;;;;;;5.00;2.10;;;19.50;99.90;;;;;;5016457;28;20221;-74
2022/07/03 01:25:53;;;;;;;3.22;1.95;;;19.50;99.90;;;;;;5016188;28;21069;-74
2022/07/03 01:28:46;;;;;;;4.05;2.10;;;19.40;99.90;;;;;;5006351;28;20217;-75
2022/07/03 01:31:39;;;;;;;3.00;1.60;;;19.30;99.90;;;;;;5014836;28;20232;-74
2022/07/03 01:34:34;;;;;;;3.60;1.58;;;19.30;99.90;;;;;;5014330;28;20218;-73
2022/07/03 01:37:27;;;;;;;5.03;1.92;;;19.20;99.90;;;;;;5012400;28;20228;-75
2022/07/03 01:40:19;;;;;;;8.70;1.80;;;19.40;99.90;;;;;;5014826;28;20770;-74
2022/07/03 01:43:10;;;;;;;3.08;2.08;;;19.40;99.90;;;;;;5015377;28;22550;-74
2022/07/03 01:46:01;;;;;;;3.67;1.83;;;19.30;99.90;;;;;;5007840;28;20541;-75
2022/07/03 01:48:51;;;;;;;3.88;1.95;;;19.20;99.90;;;;;;5001746;28;20229;-75
2022/07/03 01:51:42;;;;;;;7.03;2.05;;;19.20;99.90;;;;;;5020140;28;20253;-77
2022/07/03 01:54:32;;;;;;;4.43;2.10;;;19.20;99.90;;;;;;5019751;28;20218;-77
2022/07/03 01:57:24;;;;;;;3.53;2.10;;;19.10;99.90;;;;;;5005201;28;20213;-75
2022/07/03 02:00:17;;;;;;;3.72;2.05;;;19.10;99.90;;;;;;5015095;28;20217;-75
2022/07/03 02:03:07;;;;;;;4.82;2.30;;;19.20;99.90;;;;;;5016925;28;21092;-76
2022/07/03 02:06:03;;;;;;;3.33;2.10;;;19.10;99.90;;;;;;5005643;28;20221;-76
2022/07/03 02:08:58;;;;;;;3.30;2.10;;;19.20;99.90;;;;;;5013542;28;20236;-75
2022/07/03 02:12:12;;;;;;;3.20;2.00;;;19.20;99.90;;;;;;5012887;28;20916;-75
2022/07/03 02:15:05;;;;;;;4.35;2.20;;;19.10;99.90;;;;;;5019598;28;20356;-74
2022/07/03 02:17:57;;;;;;;4.40;1.80;;;19.10;99.90;;;;;;5011382;28;20226;-74
2022/07/03 02:20:53;;;;;;;4.13;1.73;;;19.10;99.90;;;;;;5016324;28;20226;-74
2022/07/03 02:23:45;;;;;;;5.30;1.67;;;;;;;;;;5013429;28;20298;-74
2022/07/03 02:26:38;;;;;;;2.85;1.52;;;19.00;99.90;;;;;;5014260;28;20609;-74
2022/07/03 02:29:33;;;;;;;4.63;2.00;;;18.90;99.90;;;;;;5019108;28;20271;-74
2022/07/03 02:32:23;;;;;;;4.25;1.75;;;18.90;99.90;;;;;;5016178;28;20221;-74
2022/07/03 02:35:22;;;;;;;3.00;1.77;;;18.80;99.90;;;;;;5018751;28;20209;-72
2022/07/03 02:38:13;;;;;;;9.98;2.00;;;18.70;99.90;;;;;;5019864;28;20243;-72
2022/07/03 02:41:11;;;;;;;5.05;1.58;;;18.70;99.90;;;;;;5020456;28;20219;-74
2022/07/03 02:44:02;;;;;;;5.95;1.85;;;18.80;99.90;;;;;;5015375;28;20218;-74
2022/07/03 02:47:01;;;;;;;3.45;1.65;;;18.70;99.90;;;;;;5004682;28;20222;-75
2022/07/03 02:49:59;;;;;;;3.17;1.80;;;18.80;99.90;;;;;;5019999;28;20213;-73
2022/07/03 02:52:57;;;;;;;7.25;1.80;;;18.80;99.90;;;;;;5016857;28;20758;-73
2022/07/03 02:55:50;;;;;;;5.80;1.90;;;18.90;99.90;;;;;;5010056;28;20220;-76
2022/07/03 02:58:51;;;;;;;3.45;1.50;;;18.90;99.90;;;;;;5018635;28;20684;-75
2022/07/03 03:01:47;;;;;;;4.82;1.50;;;18.90;99.90;;;;;;5003936;28;20216;-75
2022/07/03 03:04:41;;;;;;;4.35;2.17;;;18.90;99.90;;;;;;5019301;28;20724;-77
2022/07/03 03:07:39;;;;;;;3.92;1.48;;;19.00;99.90;;;;;;5018150;28;20218;-77
2022/07/03 03:10:29;;;;;;;3.10;1.70;;;19.00;99.90;;;;;;5015815;28;20249;-76
2022/07/03 03:13:19;;;;;;;6.93;1.92;;;19.00;99.90;;;;;;5021463;28;20233;-77
2022/07/03 03:16:12;;;;;;;4.95;1.48;;;19.10;99.90;;;;;;5014361;28;20213;-77
2022/07/03 03:19:01;;;;;;;5.32;1.80;;;19.30;99.90;;;;;;5016803;28;20221;-77
2022/07/03 03:21:59;;;;;;;5.65;1.67;;;19.40;99.90;;;;;;5015554;28;20723;-78
2022/07/03 03:24:48;;;;;;;3.17;1.63;;;19.10;99.90;;;;;;5014936;28;20252;-76
2022/07/03 03:27:38;;;;;;;5.85;1.80;;;19.30;99.90;;;;;;5016754;28;20226;-77
2022/07/03 03:30:26;;;;;;;6.57;1.90;;;19.40;99.90;;;;;;5019285;28;20600;-76
2022/07/03 03:33:15;;;;;;;2.75;1.73;;;19.50;99.90;;;;;;5018065;28;20265;-77
2022/07/03 03:36:06;;;;;;;3.90;1.52;;;19.50;99.90;;;;;;5017842;28;20684;-75
2022/07/03 03:38:55;;;;;;;6.50;1.80;;;19.50;99.90;;;;;;5017204;28;20222;-75
2022/07/03 03:41:43;;;;;;;3.25;1.80;;;19.40;99.90;;;;;;5002559;28;20229;-76
2022/07/03 03:44:33;;;;;;;2.47;1.73;;;19.40;99.90;;;;;;5012503;28;20264;-76
2022/07/03 03:47:22;;;;;;;5.32;1.60;;;19.30;99.90;;;;;;5016404;28;20249;-75
2022/07/03 03:50:11;;;;;;;3.85;1.63;;;19.20;99.90;;;;;;5021854;28;20230;-76
2022/07/03 03:53:01;;;;;;;2.53;1.60;;;19.40;99.90;;;;;;5013732;28;20732;-77
2022/07/03 03:56:01;;;;;;;3.28;1.70;;;19.40;99.90;;;;;;5018426;28;20240;-76
2022/07/03 03:58:49;;;;;;;2.00;1.35;;;19.50;99.90;;;;;;5010884;28;20225;-75
2022/07/03 04:01:39;;;;;;;7.60;1.50;;;19.40;99.90;;;;;;5010761;28;20241;-76
2022/07/03 04:04:28;;;;;;;4.50;1.58;;;19.40;99.90;;;;;;5015692;28;20255;-73
2022/07/03 04:07:16;;;;;;;4.80;1.40;;;19.40;99.90;;;;;;5017513;28;20240;-75
2022/07/03 04:10:06;;;;;;;5.07;1.40;;;19.50;99.90;;;;;;5001437;28;20233;-75
2022/07/03 04:12:54;;;;;;;5.28;1.75;;;19.70;99.90;;;;;;5002811;28;20249;-75
2022/07/03 04:15:43;;;;;;;4.20;1.35;;;19.60;99.90;;;;;;5002462;28;20218;-75
2022/07/03 04:18:33;;;;;;;4.18;1.42;;;19.60;99.90;;;;;;4999318;28;20222;-76
2022/07/03 04:21:21;;;;;;;3.78;1.55;;;19.50;99.90;;;;;;5020078;28;20217;-75
2022/07/03 04:24:10;;;;;;;3.78;1.48;;;19.70;99.90;;;;;;5014008;28;20228;-76
2022/07/03 04:26:59;;;;;;;3.35;1.40;;;19.80;99.90;;;;;;5014153;28;20230;-76
2022/07/03 04:29:47;;;;;;;2.40;1.45;;;19.70;99.90;;;;;;5004292;28;20240;-77
2022/07/03 04:32:36;;;;;;;2.80;1.30;;;19.80;99.90;;;;;;5013808;28;20229;-76
2022/07/03 04:35:30;;;;;;;3.88;1.27;;;19.90;99.90;;;;;;4998985;28;20222;-76
2022/07/03 04:38:18;;;;;;;2.47;1.42;;;19.90;99.90;;;;;;4997907;28;20229;-76
2022/07/03 04:41:07;;;;;;;4.28;1.20;;;20.10;99.90;;;;;;5016429;28;20304;-76
2022/07/03 04:43:55;;;;;;;5.10;1.38;;;20.20;99.90;;;;;;5015615;28;20316;-77
2022/07/03 04:46:44;;;;;;;4.07;1.40;;;20.10;99.90;;;;;;5016398;28;20244;-76
2022/07/03 04:49:32;;;;;;;4.82;1.55;;;20.20;99.90;;;;;;5012525;28;20703;-77
2022/07/03 04:52:22;;;;;;;3.20;1.33;;;20.20;99.90;;;;;;5017851;28;20565;-76
2022/07/03 04:55:18;;;;;;;2.35;1.33;;;20.30;99.90;;;;;;5001914;28;20229;-75
2022/07/03 04:58:06;;;;;;;2.75;1.27;;;20.40;99.90;;;;;;5014308;28;20718;-75
2022/07/03 05:00:58;;;;;;;3.35;1.42;;;20.30;99.90;;;;;;5003057;28;20730;-75
2022/07/03 05:03:46;;;;;;;3.67;1.45;;;20.30;99.90;;;;;;5018271;28;20422;-75
2022/07/03 05:06:41;;;;;;;3.47;1.23;;;20.20;99.90;;;;;;5013322;28;20229;-75
2022/07/03 05:09:31;;;;;;;4.63;1.70;;;20.10;99.90;;;;;;5009423;28;20233;-73
2022/07/03 05:12:20;;;;;;;3.58;1.50;;;20.30;99.90;;;;;;5016291;28;20700;-76
2022/07/03 05:15:10;;;;;;;3.63;1.42;;;20.30;99.90;;;;;;4997433;28;20232;-77
2022/07/03 05:17:58;;;;;;;4.47;1.30;;;20.20;99.90;;;;;;5010722;28;20226;-76
2022/07/03 05:20:47;;;;;;;3.25;1.30;;;20.30;99.90;;;;;;5008815;28;20222;-77
2022/07/03 05:23:35;;;;;;;3.50;1.65;;;20.60;99.90;;;;;;4997407;28;20225;-79
2022/07/03 05:26:25;;;;;;;3.15;1.33;;;20.70;99.90;;;;;;5016898;28;20238;-77
2022/07/03 05:29:14;;;;;;;3.72;1.30;;;20.60;99.90;;;;;;5017677;28;22513;-76
2022/07/03 05:32:03;;;;;;;2.63;1.00;;;20.70;99.90;;;;;;5013565;28;20680;-76
2022/07/03 05:34:51;;;;;;;1.70;1.10;;;20.70;99.90;;;;;;5012158;28;20229;-77
2022/07/03 05:37:40;;;;;;;3.85;1.52;;;20.80;99.90;;;;;;5009928;28;20222;-76
2022/07/03 05:40:28;;;;;;;3.67;1.30;;;20.70;99.90;;;;;;5010803;28;20486;-74
2022/07/03 05:43:19;;;;;;;2.60;1.30;;;20.60;99.90;;;;;;5015036;28;20541;-76
2022/07/03 05:46:07;;;;;;;1.70;1.02;;;20.60;99.90;;;;;;5019133;28;20225;-74
2022/07/03 05:48:56;;;;;;;3.05;1.05;;;20.70;99.90;;;;;;5014093;28;20380;-74
2022/07/03 05:51:44;;;;;;;2.30;1.30;;;20.80;99.90;;;;;;5018552;28;20230;-74
2022/07/03 05:54:33;;;;;;;1.75;1.05;;;20.90;99.90;;;;;;5003638;28;20218;-73
2022/07/03 05:57:22;;;;;;;4.07;1.23;;;20.90;99.90;;;;;;5008823;28;20225;-73
2022/07/03 06:00:13;;;;;;;4.57;1.20;;;21.00;99.90;;;;;;5015493;28;20222;-75
2022/07/03 06:03:02;;;;;;;4.95;1.65;;;21.10;99.90;;;;;;5003255;28;20222;-76
2022/07/03 06:05:51;;;;;;;2.97;1.38;;;21.00;99.90;;;;;;5007965;28;21724;-75
2022/07/03 06:08:39;;;;;;;2.08;1.02;;;21.10;99.90;;;;;;5011868;28;20724;-77
2022/07/03 06:11:28;;;;;;;2.05;1.23;;;21.20;99.90;;;;;;5022018;28;20228;-75
2022/07/03 06:14:16;;;;;;;2.55;1.08;;;21.20;99.90;;;;;;5016534;28;20218;-75
2022/07/03 06:17:07;;;;;;;2.30;1.20;;;21.30;99.90;;;;;;5025604;28;20747;-76
2022/07/03 06:19:56;;;;;;;3.72;1.50;;;21.40;99.90;;;;;;5010145;28;20279;-76
2022/07/03 06:22:45;;;;;;;2.25;1.10;;;21.40;99.90;;;;;;5019049;28;20221;-77
2022/07/03 06:25:33;;;;;;;3.85;1.40;;;21.60;99.90;;;;;;5019387;28;20210;-76
2022/07/03 06:28:22;;;;;;;3.85;1.00;;;22.10;99.90;;;;;;5010430;28;20249;-75
2022/07/03 06:31:10;;;;;;;1.85;1.00;;;23.50;99.90;;;;;;5007224;28;20230;-76
2022/07/03 06:34:03;;;;;;;3.30;1.10;;;23.80;99.90;;;;;;5012353;28;20241;-76
2022/07/03 06:36:52;;;;;;;2.17;1.02;;;23.40;99.90;;;;;;5016498;28;20660;-75
2022/07/03 06:39:41;;;;;;;1.45;0.93;;;23.50;99.90;;;;;;4997546;28;20237;-76
2022/07/03 06:42:30;;;;;;;2.50;0.90;;;24.10;99.90;;;;;;5016237;28;20277;-74
2022/07/03 06:45:19;;;;;;;4.13;0.93;;;25.00;96.20;;;;;;5013249;28;20256;-74
2022/07/03 06:48:07;;;;;;;2.60;1.08;;;24.60;96.40;;;;;;5005139;28;20233;-75
2022/07/03 06:50:57;;;;;;;2.70;1.08;;;24.30;97.20;;;;;;5001545;28;20233;-75
2022/07/03 06:53:49;;;;;;;1.85;0.90;;;24.10;96.70;;;;;;5003085;28;20228;-75
2022/07/03 06:56:38;;;;;;;4.47;0.95;;;24.10;94.10;;;;;;5001669;28;20233;-74
2022/07/03 06:59:26;;;;;;;3.50;1.05;;;23.70;97.50;;;;;;5016557;28;20300;-76
2022/07/03 07:02:15;;;;;;;4.70;1.02;;;23.50;98.00;;;;;;5018271;28;20222;-71
2022/07/03 07:05:04;;;;;;;2.13;0.98;;;23.20;99.60;;;;;;5014050;28;20708;-76
2022/07/03 07:07:54;;;;;;;2.78;1.20;;;23.10;98.30;;;;;;5007113;28;20283;-70
2022/07/03 07:10:42;;;;;;;2.03;0.90;;;23.10;98.60;;;;;;5014769;28;20226;-73
2022/07/03 07:13:31;;;;;;;1.75;1.10;;;23.10;97.70;;;;;;5011490;28;20732;-72
2022/07/03 07:16:19;;;;;;;1.15;0.90;;;22.90;96.90;;;;;;5017398;28;20229;-73
2022/07/03 07:19:08;;;;;;;2.17;0.90;;;23.10;97.90;;;;;;5005914;28;20624;-73
2022/07/03 07:22:02;;;;;;;2.08;0.90;;;23.30;96.80;;;;;;5020134;28;21225;-71
2022/07/03 07:24:51;;;;;;;2.35;0.90;;;23.30;96.30;;;;;;5008185;28;20213;-74
2022/07/03 07:27:40;;;;;;;1.60;1.02;;;23.50;99.60;;;;;;5015149;28;20332;-74
2022/07/03 07:30:29;;;;;;;3.65;0.90;;;23.50;99.90;;;;;;5004996;28;20643;-72
2022/07/03 07:33:17;;;;;;;1.92;1.20;;;23.70;99.90;;;;;;5015327;28;20214;-73
2022/07/03 07:36:06;;;;;;;2.03;1.20;;;23.90;99.90;;;;;;5003125;28;20234;-72
2022/07/03 07:38:59;;;;;;;2.78;1.20;;;24.00;98.40;;;;;;5013084;28;20225;-73
2022/07/03 07:41:48;;;;;;;3.65;1.45;;;24.50;96.80;;;;;;5016371;28;20225;-73
2022/07/03 07:44:37;;;;;;;1.92;1.00;;;24.70;97.60;;;;;;5005617;28;20238;-74
2022/07/03 07:47:25;;;;;;;2.47;0.98;;;25.00;95.00;;;;;;5018105;28;20240;-73
2022/07/03 07:50:14;;;;;;;1.75;1.05;;;25.50;93.10;;;;;;5014486;28;20229;-73
2022/07/03 07:53:03;;;;;;;2.08;1.08;;;25.70;90.40;;;;;;5015039;28;20226;-72
2022/07/03 07:55:52;;;;;;;3.25;1.10;;;26.10;90.20;;;;;;5021462;28;20221;-72
2022/07/03 07:58:44;;;;;;;1.77;1.10;;;26.20;90.70;;;;;;5014616;28;20259;-74
2022/07/03 08:07:44;;;;;;;2.33;1.10;;;26.90;85.20;;;;;;5012356;28;20252;-72
2022/07/03 08:10:38;;;;;;;2.38;0.90;;;27.00;82.80;;;;;;5017311;28;20217;-72
2022/07/03 08:13:27;;;;;;;1.75;1.02;;;27.20;83.50;;;;;;5015468;28;20221;-72
2022/07/03 08:16:17;;;;;;;4.45;1.10;;;27.50;80.40;;;;;;5014382;28;20311;-73
2022/07/03 08:19:06;;;;;;;2.33;1.10;;;27.90;80.00;;;;;;5015134;28;20233;-72
2022/07/03 08:21:54;;;;;;;3.00;0.90;;;27.90;78.50;;;;;;5012904;28;20642;-72
2022/07/03 08:24:43;;;;;;;1.73;1.10;;;28.10;77.10;;;;;;5009321;28;20225;-73
2022/07/03 08:27:32;;;;;;;2.10;1.20;;;28.60;79.00;;;;;;5008662;28;20552;-72
2022/07/03 08:30:21;;;;;;;2.80;1.25;;;28.40;74.90;;;;;;5019573;28;20230;-72
2022/07/03 08:33:10;;;;;;;2.17;1.10;;;28.90;74.10;;;;;;5014528;28;20771;-72
2022/07/03 08:35:59;;;;;;;2.58;1.20;;;28.90;72.30;;;;;;5002209;28;20224;-73
2022/07/03 08:38:48;;;;;;;2.25;1.02;;;29.50;72.50;;;;;;4988728;28;20308;-71
2022/07/03 08:41:38;;;;;;;2.78;1.08;;;29.60;70.70;;;;;;5011514;28;20866;-71
2022/07/03 08:44:27;;;;;;;1.92;1.35;;;29.70;71.40;;;;;;5012184;28;20228;-73
2022/07/03 08:47:18;;;;;;;3.25;1.27;;;29.90;69.30;;;;;;5001158;28;20234;-73
2022/07/03 08:50:10;;;;;;;2.10;1.08;;;29.50;65.80;;;;;;5016402;28;21092;-74
2022/07/03 08:53:03;;;;;;;3.42;1.48;;;30.00;66.30;;;;;;5013491;28;20327;-73
2022/07/03 08:55:52;;;;;;;1.48;1.10;;;30.20;64.50;;;;;;5015684;28;20217;-72
2022/07/03 08:58:42;;;;;;;4.05;1.40;;;30.40;65.70;;;;;;5020428;28;20221;-72
2022/07/03 09:01:32;;;;;;;4.03;1.13;;;31.20;63.00;;;;;;4991683;28;20644;-73
2022/07/03 09:04:22;;;;;;;3.08;1.10;;;32.00;61.90;;;;;;5004452;28;20220;-73
2022/07/03 09:07:14;;;;;;;1.30;0.98;;;32.50;59.90;;;;;;5018140;28;20221;-72
2022/07/03 09:10:03;;;;;;;4.93;1.20;;;32.20;59.60;;;;;;5019101;28;20706;-73
2022/07/03 09:12:55;;;;;;;2.38;1.20;;;32.40;59.70;;;;;;5017980;28;20671;-72
2022/07/03 09:15:44;;;;;;;1.38;1.05;;;32.50;58.60;;;;;;5015476;28;20237;-73
2022/07/03 09:18:40;;;;;;;2.35;1.10;;;32.90;58.60;;;;;;5006892;28;20673;-73
2022/07/03 09:21:36;;;;;;;2.90;1.10;;;33.00;56.90;;;;;;5016978;28;20225;-72
2022/07/03 09:24:33;;;;;;;1.08;0.98;;;34.30;56.60;;;;;;5018093;28;20228;-73
2022/07/03 09:27:23;;;;;;;1.83;1.33;;;34.90;55.80;;;;;;5017759;28;20232;-74
2022/07/03 09:30:12;;;;;;;5.30;1.38;;;34.50;53.20;;;;;;5017036;28;20232;-73
2022/07/03 09:33:01;;;;;;;3.22;1.30;;;35.50;53.80;;;;;;5006031;28;20244;-74
2022/07/03 09:35:54;;;;;;;1.95;1.40;;;34.90;53.00;;;;;;5015596;28;20738;-72
2022/07/03 09:38:45;;;;;;;1.70;1.10;;;35.30;53.20;;;;;;5017106;28;20780;-73
2022/07/03 09:41:55;;;;;;;1.80;0.90;;;35.90;51.80;;;;;;5017606;28;20722;-73
2022/07/03 09:44:46;;;;;;;4.15;1.00;;;35.10;54.20;;;;;;5001721;28;20221;-72
2022/07/03 09:47:39;;;;;;;1.45;1.00;;;35.50;51.50;;;;;;5007424;28;20233;-72
2022/07/03 09:50:32;;;;;;;1.65;0.95;;;36.20;52.40;;;;;;5014245;28;20261;-72
2022/07/03 09:53:20;;;;;;;1.55;1.00;;;37.60;50.00;;;;;;5020443;28;20741;-72
2022/07/03 09:56:09;;;;;;;2.38;1.00;;;36.10;49.50;;;;;;5019713;28;20588;-72
2022/07/03 09:59:07;;;;;;;2.55;0.88;;;36.40;50.60;;;;;;4998519;28;20371;-73
2022/07/03 10:02:09;;;;;;;2.30;1.20;;;36.10;51.20;;;;;;5019122;28;20229;-80
2022/07/03 10:05:12;;;;;;;1.55;1.05;;;36.70;49.80;;;;;;5006802;28;20250;-72
2022/07/03 10:08:03;;;;;;;1.58;1.02;;;38.30;47.70;;;;;;5005774;28;20710;-72
2022/07/03 10:10:51;;;;;;;2.60;1.30;;;38.80;47.00;;;;;;5020774;28;20217;-71
2022/07/03 10:13:41;;;;;;;1.80;1.00;;;39.00;46.60;;;;;;5010854;28;20213;-73
2022/07/03 10:16:31;;;;;;;1.15;0.90;;;39.90;44.70;;;;;;5023205;28;20231;-72
2022/07/03 10:19:21;;;;;;;2.47;1.08;;;40.50;44.10;;;;;;5000923;28;20246;-76
2022/07/03 10:22:19;;;;;;;2.35;1.10;;;40.00;42.80;;;;;;5012140;28;20707;-72
2022/07/03 10:25:09;;;;;;;2.28;1.00;;;40.30;43.30;;;;;;5017829;28;20607;-73
2022/07/03 10:27:58;;;;;;;1.63;1.13;;;39.10;44.30;;;;;;5017925;28;20236;-71
2022/07/03 10:30:48;;;;;;;2.35;1.25;;;40.10;43.50;;;;;;5008607;28;20233;-72
2022/07/03 10:33:38;;;;;;;2.40;0.93;;;40.90;42.50;;;;;;5016201;28;20344;-71
2022/07/03 10:36:27;;;;;;;2.20;1.10;;;40.40;42.90;;;;;;5015452;28;20316;-72
2022/07/03 10:39:26;;;;;;;3.53;1.10;;;40.40;42.50;;;;;;5013626;28;20217;-72
2022/07/03 10:45:31;;;;;;;2.35;1.10;;;41.00;41.20;;;;;;5010238;28;20275;-73
2022/07/03 10:48:20;;;;;;;2.33;0.80;;;41.20;41.80;;;;;;5012237;28;20229;-74
2022/07/03 10:51:16;;;;;;;1.20;0.90;;;41.80;41.50;;;;;;5013823;28;20233;-74
2022/07/03 10:54:19;;;;;;;1.48;1.00;;;41.40;40.80;;;;;;5010742;28;20225;-72
2022/07/03 10:57:17;;;;;;;1.67;0.90;;;41.80;41.00;;;;;;5002147;28;20221;-72
2022/07/03 11:00:14;;;;;;;1.80;1.00;;;42.00;38.90;;;;;;5027469;28;20552;-73
2022/07/03 11:03:03;;;;;;;1.48;1.10;;;43.90;39.10;;;;;;5010972;28;20233;-73
2022/07/03 11:05:51;;;;;;;3.15;0.98;;;42.30;37.50;;;;;;4998435;28;20229;-74
2022/07/03 11:09:03;;;;;;;1.23;1.10;;;42.90;39.90;;;;;;5015560;28;20305;-73
2022/07/03 11:11:58;;;;;;;2.92;1.05;;;42.80;38.70;;;;;;5008025;28;20632;-73
2022/07/03 11:14:46;;;;;;;2.30;1.10;;;43.30;40.20;;;;;;5009825;28;20221;-76
2022/07/03 11:17:38;;;;;;;2.15;1.10;;;43.40;39.00;;;;;;4997268;28;20221;-74
2022/07/03 11:20:27;;;;;;;2.13;1.00;;;42.60;39.60;;;;;;5010977;28;20280;-74
2022/07/03 11:23:22;;;;;;;2.03;1.08;;;42.50;39.40;;;;;;4998033;28;20256;-73
2022/07/03 11:26:23;;;;;;;2.45;0.98;;;42.40;39.10;;;;;;5012833;28;20225;-73
2022/07/03 11:29:28;;;;;;;2.35;1.20;;;43.00;38.90;;;;;;5013899;28;21442;-74
2022/07/03 11:32:45;;;;;;;2.88;1.20;;;43.70;38.70;;;;;;4996874;28;20216;-74
2022/07/03 11:35:51;;;;;;;1.85;0.98;;;43.70;37.40;;;;;;4997753;28;20662;-73
2022/07/03 11:38:40;;;;;;;1.20;1.10;;;43.80;38.30;;;;;;5012293;28;20350;-73
2022/07/03 11:41:32;;;;;;;1.73;1.20;;;43.80;37.90;;;;;;5015238;28;20229;-74
2022/07/03 11:44:21;;;;;;;1.85;1.20;;;44.90;37.60;;;;;;5017438;28;20298;-73
2022/07/03 11:47:11;;;;;;;1.30;1.10;;;43.90;37.40;;;;;;5017648;28;20310;-74
2022/07/03 11:49:59;;;;;;;1.70;1.17;;;44.00;38.20;;;;;;5014706;28;20687;-74
2022/07/03 11:52:48;;;;;;;2.67;1.20;;;43.40;38.10;;;;;;5015070;28;20953;-74
2022/07/03 11:55:47;;;;;;;2.35;1.00;;;43.20;37.60;;;;;;5019706;28;20751;-75
2022/07/03 11:58:48;;;;;;;1.60;1.17;;;42.90;38.50;;;;;;5029763;28;20225;-74
2022/07/03 12:01:37;;;;;;;1.00;0.90;;;43.10;37.90;;;;;;5016792;28;20236;-73
2022/07/03 12:04:26;;;;;;;3.03;1.13;;;43.40;37.80;;;;;;5023507;28;20236;-74
2022/07/03 12:07:16;;;;;;;2.50;1.20;;;43.50;38.00;;;;;;5005364;28;20232;-74
2022/07/03 12:10:05;;;;;;;1.65;1.13;;;43.70;37.50;;;;;;5021985;28;20220;-74
2022/07/03 12:12:54;;;;;;;1.85;1.02;;;43.40;38.00;;;;;;5016940;28;20224;-74
2022/07/03 12:15:43;;;;;;;2.58;1.30;;;43.10;37.70;;;;;;5017842;28;20220;-77
2022/07/03 12:18:50;;;;;;;5.18;1.23;;;42.70;37.50;;;;;;5013340;28;20221;-74
2022/07/03 12:21:40;;;;;;;2.72;1.00;;;42.90;38.20;;;;;;5013037;28;20691;-74
2022/07/03 12:24:29;;;;;;;4.72;1.30;;;42.50;38.10;;;;;;5019169;28;20235;-73
2022/07/03 12:27:19;;;;;;;2.17;1.30;;;42.10;39.30;;;;;;5003198;28;20287;-73
2022/07/03 12:30:10;;;;;;;1.42;1.00;;;41.70;40.70;;;;;;5012396;28;20691;-74
2022/07/03 12:33:00;;;;;;;2.13;1.63;;;41.10;39.80;;;;;;5018646;28;20232;-73
2022/07/03 12:36:03;;;;;;;1.60;1.50;;;38.30;42.10;;;;;;5010412;28;20229;-74
2022/07/03 12:38:53;;;;;;;2.53;1.15;;;36.20;44.60;;;;;;5017540;28;20224;-74
2022/07/03 12:41:42;;;;;;;2.60;1.20;;;34.40;46.80;;;;;;5020060;28;20773;-73
2022/07/03 12:44:31;;;;;;;1.83;1.10;;;33.10;49.30;;;;;;5012297;28;20292;-71
2022/07/03 12:47:19;;;;;;;2.70;1.20;;;32.40;51.50;;;;;;5025445;28;20221;-72
2022/07/03 12:50:10;;;;;;;1.92;0.95;;;31.90;53.10;;;;;;5016597;28;20244;-72
2022/07/03 12:52:58;;;;;;;1.63;1.20;;;31.70;53.00;;;;;;5018500;28;20221;-74
2022/07/03 12:55:47;;;;;;;3.97;2.70;;;31.40;54.50;;;;;;5024802;28;20265;-74
2022/07/03 13:02:01;;;;;;;1.85;1.30;;;31.30;55.80;;;;;;5011863;28;20236;-74
2022/07/03 13:04:53;;;;;;;2.55;1.40;;;31.40;56.40;;;;;;5021112;28;20224;-74
2022/07/03 13:07:44;;;;;;;2.95;1.38;;;31.90;56.50;;;;;;5013330;28;20230;-75
2022/07/03 13:10:32;;;;;;;2.72;1.40;;;31.30;55.50;;;;;;5013496;28;20270;-74
2022/07/03 13:13:21;;;;;;;1.92;1.25;;;30.70;57.30;;;;;;5016526;28;20268;-74
2022/07/03 13:16:24;;;;;;;3.45;1.40;;;30.60;57.90;;;;;;5001207;28;20239;-74
2022/07/03 13:19:19;;;;;;;1.42;1.30;;;30.20;57.70;;;;;;5013528;28;20298;-74
2022/07/03 13:22:07;;;;;;;1.30;1.10;;;29.90;59.10;;;;;;5014913;28;20213;-74
2022/07/03 13:24:57;;;;;;;2.47;1.70;;;29.70;60.40;;;;;;5015539;28;20213;-75
2022/07/03 13:27:46;;;;;;;1.73;1.20;;;29.40;60.30;;;;;;5000915;28;20236;-74
2022/07/03 13:30:35;;;;;;;1.27;1.10;;;29.00;61.90;;;;;;5001212;28;20229;-73
2022/07/03 13:33:23;;;;;;;2.10;1.25;;;29.10;62.50;;;;;;5013043;28;20221;-74
2022/07/03 13:36:12;;;;;;;2.30;1.30;;;29.10;61.50;;;;;;5014680;28;20221;-74
2022/07/03 13:39:01;;;;;;;2.53;1.10;;;29.00;62.10;;;;;;5007308;28;20221;-75
2022/07/03 13:41:51;;;;;;;1.77;1.20;;;29.10;63.00;;;;;;5012065;28;20298;-73
2022/07/03 13:44:39;;;;;;;3.17;1.30;;;29.10;62.90;;;;;;5014973;28;20246;-73
2022/07/03 13:47:28;;;;;;;3.00;1.20;;;29.00;62.60;;;;;;5008386;28;20265;-72
2022/07/03 13:50:18;;;;;;;2.53;1.17;;;29.00;63.10;;;;;;5020968;28;20252;-73
2022/07/03 13:53:06;;;;;;;2.38;1.20;;;28.90;65.00;;;;;;5017287;28;20240;-73
2022/07/03 13:55:57;;;;;;;2.35;1.13;;;28.70;64.00;;;;;;5024412;28;20236;-73
2022/07/03 13:58:47;;;;;;;2.13;1.27;;;28.50;64.70;;;;;;5019328;28;20229;-73
2022/07/03 14:01:39;;;;;;;6.57;1.55;;;28.40;65.40;;;;;;5010184;28;20230;-73
2022/07/03 14:04:28;;;;;;;2.28;1.20;;;28.50;66.00;;;;;;5023409;28;20232;-74
2022/07/03 14:07:16;;;;;;;2.55;1.20;;;28.30;66.50;;;;;;5026254;28;20580;-74
2022/07/03 14:10:06;;;;;;;2.40;1.38;;;28.30;66.40;;;;;;5016170;28;20221;-72
2022/07/03 14:12:54;;;;;;;3.53;1.20;;;28.50;67.70;;;;;;5009748;28;20225;-73
2022/07/03 14:15:44;;;;;;;1.80;1.33;;;28.30;67.50;;;;;;5000661;28;20716;-73
2022/07/03 14:18:33;;;;;;;2.28;1.35;;;28.30;66.60;;;;;;5018706;28;20226;-73
2022/07/03 14:21:21;;;;;;;2.72;2.42;;;28.60;68.20;;;;;;5006514;28;20225;-73
2022/07/03 14:24:13;;;;;;;2.83;1.60;;;28.80;67.00;;;;;;5023723;28;20285;-74
2022/07/03 14:33:17;;;;;;;1.98;1.38;;;28.60;71.20;;;;;;5013070;28;20218;-74
2022/07/03 14:36:06;;;;;;;2.00;1.38;;;28.10;77.90;;;;;;5017477;28;20552;-75
2022/07/03 14:39:01;;;;;;;3.10;1.70;;;28.20;78.90;;;;;;5023636;28;20226;-71
2022/07/03 14:41:49;;;;;;;1.60;1.40;;;28.10;79.40;;;;;;5017102;28;20499;-75
2022/07/03 14:44:38;;;;;;;2.90;1.48;;;28.10;80.50;;;;;;5017757;28;20229;-73
2022/07/03 14:47:27;;;;;;;4.45;1.60;;;28.20;80.60;;;;;;5015175;28;20242;-77
2022/07/03 14:50:21;;;;;;;13.48;12.13;;;27.60;81.00;;;;;;5013780;28;20222;-74
2022/07/03 14:53:09;;;;;;;1.65;1.45;;;27.70;83.90;;;;;;5019500;28;20224;-73
2022/07/03 14:55:58;;;;;;;1.90;1.27;;;27.80;84.90;;;;;;5019424;28;20719;-75
2022/07/03 14:58:51;;;;;;;1.52;1.40;;;27.70;84.70;;;;;;5020170;28;20232;-73
2022/07/03 15:01:43;;;;;;;2.00;1.42;;;27.70;85.00;;;;;;5016989;28;20214;-72
2022/07/03 15:04:41;;;;;;;3.97;1.60;;;27.70;86.50;;;;;;5020636;28;20892;-73
2022/07/03 15:07:37;;;;;;;3.05;1.30;;;27.40;87.60;;;;;;5017141;28;20581;-72
2022/07/03 15:10:26;;;;;;;1.42;1.33;;;27.30;90.40;;;;;;5013027;28;20230;-72
2022/07/03 15:13:15;;;;;;;1.50;1.27;;;27.10;90.30;;;;;;5009764;28;20248;-73